Lake Oke North End current weather conditions

sailwx.info

Wind from 005 at 13 knots gusting 15

Air temperature 13.0° C
Dewpoint 10.0° C
Water temperature -7999.0° C

Last reported at 2020-Jan-21 03:45 UTC.
Time now 2020-Jan-21 04:52 UTC

Location: N 27°08' W 080°47'.
View on Google Maps.

See reports from other nearby stations

  
Tides and Currents Weather Stations Pressure Air Temp Water Temp Dewpoint Dewpoint Depression Visibility Wind Speed Wind Dir Waves Ship Positions
date/time (UTC)wind fromknots sea level pressurealtimeterstation pressurevisibilityair tempwater tempwave heightnotes
2020-Jan-21 03:45 005 13 gusting 15 13.0-7999.0
2020-Jan-21 03:30 010 14 gusting 17 13.2-7999.0
2020-Jan-21 03:15 017 13 gusting 15 13.4-7999.0
2020-Jan-21 03:00 080 13 gusting 15 13.7-7999.0
2020-Jan-21 02:45 038 14 gusting 17 14.1-7999.0
2020-Jan-21 02:30 016 15 gusting 17 14.3-7999.0
2020-Jan-21 02:15 017 15 gusting 18 14.3-7999.0
2020-Jan-21 02:00 016 15 gusting 18 14.5-7999.0
2020-Jan-21 01:30 018 12 gusting 14 14.6-7999.0
2020-Jan-21 01:15 018 12 gusting 14 14.9-7999.0
2020-Jan-21 01:00 016 11 gusting 14 15.3-7999.0
2020-Jan-21 00:45 030 11 gusting 14 15.7-7999.0
2020-Jan-21 00:30 193 13 gusting 14 15.8-7999.0
2020-Jan-21 00:00 318 12 gusting 14 16.3-7999.0
2020-Jan-20 23:45 279 12 gusting 14 16.8-7999.0
2020-Jan-20 23:30 238 12 gusting 14 17.1-7999.0
2020-Jan-20 23:00 289 12 gusting 14 17.9-7999.0
2020-Jan-20 22:45 341 12 gusting 14 18.2-7999.0
2020-Jan-20 22:30 335 11 gusting 12 18.5-7999.0
2020-Jan-20 22:15 262 11 gusting 13 18.7-7999.0
2020-Jan-20 22:00 223 10 gusting 12 18.8-7999.0
2020-Jan-20 21:45 293 11 gusting 13 18.8-7999.0
2020-Jan-20 21:30 317 12 gusting 15 18.8-7999.0
2020-Jan-20 21:15 284 11 gusting 14 18.9-7999.0
2020-Jan-20 21:00 319 11 gusting 14 18.9-7999.0
2020-Jan-20 20:45 320 11 gusting 14 19.0-7999.0
2020-Jan-20 20:30 322 10 gusting 12 19.0-7999.0
2020-Jan-20 20:15 215 9 gusting 11 19.0-7999.0
2020-Jan-20 20:00 172 8 gusting 10 18.9-7999.0
2020-Jan-20 19:30 109 9 gusting 11 18.7-7999.0
2020-Jan-20 19:15 165 9 gusting 11 18.6-7999.0
2020-Jan-20 19:00 210 8 gusting 10 18.3-7999.0
2020-Jan-20 18:30 198 10 gusting 12 17.9-7999.0
2020-Jan-20 18:00 243 9 gusting 12 17.3-7999.0
2020-Jan-20 17:30 268 10 gusting 14 16.9-7999.0
2020-Jan-20 17:15 148 10 gusting 12 16.8-7999.0
2020-Jan-20 17:00 154 10 gusting 14 16.4-7999.0
2020-Jan-20 16:30 102 8 gusting 10 15.5-7999.0
2020-Jan-20 16:00 072 9 gusting 11 14.9-7999.0
2020-Jan-20 15:30 091 10 gusting 13 14.0-7999.0
2020-Jan-20 15:00 102 12 gusting 14 13.7-7999.0
2020-Jan-20 14:30 274 16 gusting 19 13.5-7999.0
2020-Jan-20 14:00 148 15 gusting 17 14.3-7999.0
2020-Jan-20 13:30 020 11 gusting 14 15.5-7999.0
2020-Jan-20 13:15 013 13 gusting 16 15.6-7999.0
2020-Jan-20 13:00 048 12 gusting 15 15.7-7999.0
2020-Jan-20 12:45 016 12 gusting 15 15.6-7999.0
2020-Jan-20 12:30 019 14 gusting 17 15.5-7999.0
2020-Jan-20 12:00 022 16 gusting 18 16.0-7999.0
2020-Jan-20 11:45 020 16 gusting 18 16.8-7999.0
2020-Jan-20 11:30 026 15 gusting 18 17.1-7999.0
2020-Jan-20 11:15 025 15 gusting 17 17.5-7999.0
2020-Jan-20 11:00 023 14 gusting 17 17.9-7999.0
2020-Jan-20 10:30 029 14 gusting 16 18.6-7999.0
2020-Jan-20 10:00 322 8 gusting 13 19.9-7999.0
2020-Jan-20 09:30 322 8 gusting 10 20.2-7999.0
2020-Jan-20 09:00 330 8 gusting 10 20.5-7999.0
2020-Jan-20 08:30 328 9 gusting 10 20.6-7999.0
2020-Jan-20 08:15 326 8 gusting 9 20.6-7999.0
2020-Jan-20 08:00 317 7 gusting 9 20.4-7999.0
2020-Jan-20 07:30 310 8 gusting 10 20.4-7999.0
2020-Jan-20 07:15 306 9 gusting 11 20.6-7999.0
2020-Jan-20 07:00 301 9 gusting 11 20.9-7999.0
2020-Jan-20 06:30 293 9 gusting 11 21.1-7999.0
2020-Jan-20 06:15 294 9 gusting 11 21.1-7999.0
2020-Jan-20 06:00 291 10 gusting 13 21.3-7999.0
2020-Jan-20 05:30 268 7 gusting 8 21.4-7999.0
2020-Jan-20 05:00 280 8 gusting 10 21.7-7999.0
2020-Jan-20 04:45 278 8 gusting 9 21.8-7999.0
2020-Jan-20 04:30 281 8 gusting 10 21.8-7999.0
2020-Jan-20 04:00 281 9 gusting 10 22.1-7999.0
2020-Jan-20 03:45 285 8 gusting 9 22.2-7999.0
2020-Jan-20 03:30 289 7 gusting 9 22.4-7999.0
2020-Jan-20 03:15 287 8 gusting 9 22.5-7999.0
2020-Jan-20 02:45 282 6 gusting 8 22.6-7999.0
2020-Jan-20 02:15 282 6 gusting 7 22.8-7999.0
2020-Jan-20 01:45 286 8 gusting 10 22.9-7999.0
2020-Jan-20 01:15 274 10 gusting 11 23.1-7999.0
2020-Jan-20 00:45 276 10 gusting 12 23.3-7999.0
2020-Jan-20 00:15 276 9 gusting 11 23.6-7999.0
2020-Jan-19 23:45 264 8 gusting 12 24.3-7999.0
2020-Jan-19 23:15 213 3 gusting 4 23.8-7999.0
2020-Jan-19 22:45 169 3 gusting 4 24.0-7999.0
2020-Jan-19 22:30 156 3 gusting 4 23.8-7999.0
2020-Jan-19 22:15 152 4 gusting 5 23.9-7999.0
2020-Jan-19 21:45 138 5 gusting 5 24.0-7999.0
2020-Jan-19 21:15 140 6 gusting 7 23.9-7999.0
2020-Jan-19 20:45 141 7 gusting 7 23.7-7999.0
2020-Jan-19 20:30 148 7 gusting 8 23.7-7999.0
2020-Jan-19 20:15 153 7 gusting 8 23.8-7999.0
2020-Jan-19 19:45 157 8 gusting 9 23.7-7999.0
2020-Jan-19 19:15 155 7 gusting 9 23.6-7999.0
2020-Jan-19 18:45 174 7 gusting 8 23.5-7999.0
2020-Jan-19 18:30 167 6 gusting 7 23.5-7999.0
2020-Jan-19 18:15 176 5 gusting 5 23.4-7999.0
2020-Jan-19 17:45 197 4 gusting 5 22.7-7999.0
2020-Jan-19 17:30 208 4 gusting 4 22.6-7999.0
2020-Jan-19 17:15 199 5 gusting 5 22.3-7999.0
2020-Jan-19 16:45 208 6 gusting 7 22.2-7999.0
2020-Jan-19 16:30 216 7 gusting 8 22.1-7999.0
2020-Jan-19 16:15 210 9 gusting 11 21.7-7999.0
2020-Jan-19 15:45 204 9 gusting 11 21.6-7999.0
2020-Jan-19 15:30 198 10 gusting 13 21.8-7999.0
2020-Jan-19 15:15 194 11 gusting 12 21.7-7999.0
2020-Jan-19 14:45 186 11 gusting 13 21.6-7999.0
2020-Jan-19 14:30 180 11 gusting 13 21.6-7999.0
2020-Jan-19 14:15 181 12 gusting 14 21.6-7999.0
2020-Jan-19 13:45 185 12 gusting 13 21.6-7999.0
2020-Jan-19 13:30 182 12 gusting 13 21.5-7999.0
2020-Jan-19 13:15 182 10 gusting 12 21.6-7999.0
2020-Jan-19 12:45 181 9 gusting 10 21.4-7999.0
2020-Jan-19 12:30 185 10 gusting 12 21.3-7999.0
2020-Jan-19 12:15 186 11 gusting 13 21.3-7999.0
2020-Jan-19 11:45 184 11 gusting 13 21.3-7999.0
2020-Jan-19 11:30 185 11 gusting 14 21.3-7999.0
2020-Jan-19 11:15 185 11 gusting 13 21.4-7999.0
2020-Jan-19 11:00 180 9 gusting 10 21.4-7999.0
2020-Jan-19 10:45 179 9 gusting 11 21.5-7999.0
2020-Jan-19 10:30 185 10 gusting 12 21.4-7999.0
2020-Jan-19 10:15 184 10 gusting 12 21.4-7999.0
2020-Jan-19 10:00 182 10 gusting 12 21.4-7999.0
2020-Jan-19 09:45 180 11 gusting 13 21.4-7999.0
2020-Jan-19 09:30 180 11 gusting 13 21.3-7999.0
2020-Jan-19 09:15 179 11 gusting 12 21.4-7999.0
2020-Jan-19 08:45 180 9 gusting 11 21.4-7999.0
2020-Jan-19 08:30 178 10 gusting 13 21.4-7999.0
2020-Jan-19 08:15 171 11 gusting 12 21.4-7999.0
2020-Jan-19 07:45 168 9 gusting 11 21.5-7999.0
2020-Jan-19 07:30 172 9 gusting 10 21.4-7999.0
2020-Jan-19 07:15 177 8 gusting 9 21.4-7999.0
2020-Jan-19 06:45 178 8 gusting 10 21.4-7999.0
2020-Jan-19 06:30 180 7 gusting 8 21.4-7999.0
2020-Jan-19 06:15 177 6 gusting 8 21.3-7999.0
2020-Jan-19 06:00 169 6 gusting 6 21.2-7999.0
2020-Jan-19 05:45 167 5 gusting 6 21.3-7999.0
2020-Jan-19 05:30 155 4 gusting 6 21.0-7999.0
2020-Jan-19 05:15 146 2 gusting 3 21.0-7999.0
2020-Jan-19 04:45 145 2 gusting 3 21.0-7999.0
2020-Jan-19 04:30 146 3 gusting 4 20.9-7999.0
2020-Jan-19 04:15 143 4 gusting 5 20.9-7999.0